sensor_id;sensor_type;location;lat;lon;timestamp;pressure;altitude;pressure_sealevel;temperature;humidity
11542;BME280;5827;49.482;7.716;2023-05-19T00:01:43;99464.31;;;10.27;84.84
11542;BME280;5827;49.482;7.716;2023-05-19T00:03:51;99470.38;;;10.34;84.18
11542;BME280;5827;49.482;7.716;2023-05-19T00:05:53;99470.69;;;10.26;84.25
11542;BME280;5827;49.482;7.716;2023-05-19T00:07:58;99470.38;;;10.34;84.68
11542;BME280;5827;49.482;7.716;2023-05-19T00:10:01;99465.47;;;10.31;84.70
11542;BME280;5827;49.482;7.716;2023-05-19T00:12:03;99470.47;;;10.27;85.18
11542;BME280;5827;49.482;7.716;2023-05-19T00:14:06;99460.84;;;10.19;84.61
11542;BME280;5827;49.482;7.716;2023-05-19T00:16:09;99468.00;;;10.26;84.56
11542;BME280;5827;49.482;7.716;2023-05-19T00:18:12;99469.56;;;10.33;84.73
11542;BME280;5827;49.482;7.716;2023-05-19T00:20:15;99464.31;;;10.27;83.75
11542;BME280;5827;49.482;7.716;2023-05-19T00:22:17;99468.34;;;10.11;84.27
11542;BME280;5827;49.482;7.716;2023-05-19T00:24:18;99462.72;;;10.19;84.34
11542;BME280;5827;49.482;7.716;2023-05-19T00:26:20;99465.09;;;10.09;85.17
11542;BME280;5827;49.482;7.716;2023-05-19T00:28:22;99454.00;;;10.05;86.36
11542;BME280;5827;49.482;7.716;2023-05-19T00:30:23;99462.03;;;9.87;85.84
11542;BME280;5827;49.482;7.716;2023-05-19T00:32:25;99458.97;;;10.02;87.17
11542;BME280;5827;49.482;7.716;2023-05-19T00:34:28;99462.31;;;9.97;86.91
11542;BME280;5827;49.482;7.716;2023-05-19T00:36:29;99460.31;;;9.92;86.00
11542;BME280;5827;49.482;7.716;2023-05-19T00:38:32;99455.09;;;9.98;86.82
11542;BME280;5827;49.482;7.716;2023-05-19T00:40:34;99458.59;;;10.16;85.48
11542;BME280;5827;49.482;7.716;2023-05-19T00:42:37;99451.63;;;10.15;84.28
11542;BME280;5827;49.482;7.716;2023-05-19T00:44:39;99458.06;;;9.89;85.04
11542;BME280;5827;49.482;7.716;2023-05-19T00:46:41;99452.78;;;9.83;86.51
11542;BME280;5827;49.482;7.716;2023-05-19T00:48:43;99441.41;;;9.69;86.49
11542;BME280;5827;49.482;7.716;2023-05-19T00:50:46;99436.28;;;9.67;88.31
11542;BME280;5827;49.482;7.716;2023-05-19T00:52:48;99431.22;;;9.59;88.50
11542;BME280;5827;49.482;7.716;2023-05-19T00:54:50;99424.34;;;9.45;88.19
11542;BME280;5827;49.482;7.716;2023-05-19T00:56:52;99424.88;;;9.54;89.05
11542;BME280;5827;49.482;7.716;2023-05-19T00:58:54;99428.84;;;9.70;88.07
11542;BME280;5827;49.482;7.716;2023-05-19T01:00:56;99425.28;;;9.76;86.41
11542;BME280;5827;49.482;7.716;2023-05-19T01:03:02;99422.53;;;9.64;86.59
11542;BME280;5827;49.482;7.716;2023-05-19T01:05:10;99427.28;;;9.80;86.35
11542;BME280;5827;49.482;7.716;2023-05-19T01:07:14;99425.06;;;9.77;86.15
11542;BME280;5827;49.482;7.716;2023-05-19T01:09:16;99419.31;;;9.55;86.60
11542;BME280;5827;49.482;7.716;2023-05-19T01:11:18;99421.75;;;9.57;87.15
11542;BME280;5827;49.482;7.716;2023-05-19T01:13:20;99417.53;;;9.49;87.99
11542;BME280;5827;49.482;7.716;2023-05-19T01:15:22;99414.38;;;9.52;87.48
11542;BME280;5827;49.482;7.716;2023-05-19T01:17:30;99412.59;;;9.46;88.57
11542;BME280;5827;49.482;7.716;2023-05-19T01:19:49;99417.72;;;9.48;87.18
11542;BME280;5827;49.482;7.716;2023-05-19T01:22:10;99419.66;;;9.40;87.15
11542;BME280;5827;49.482;7.716;2023-05-19T01:24:28;99416.88;;;9.29;88.14
11542;BME280;5827;49.482;7.716;2023-05-19T01:26:56;99412.72;;;9.33;88.96
11542;BME280;5827;49.482;7.716;2023-05-19T01:31:30;99416.63;;;9.12;90.28
11542;BME280;5827;49.482;7.716;2023-05-19T01:33:32;99428.06;;;9.44;88.38
11542;BME280;5827;49.482;7.716;2023-05-19T01:35:35;99430.50;;;9.46;87.28
11542;BME280;5827;49.482;7.716;2023-05-19T01:37:38;99436.84;;;9.51;87.03
11542;BME280;5827;49.482;7.716;2023-05-19T01:39:40;99433.06;;;9.34;88.12
11542;BME280;5827;49.482;7.716;2023-05-19T01:41:43;99432.81;;;9.42;87.01
11542;BME280;5827;49.482;7.716;2023-05-19T01:43:46;99421.53;;;9.40;89.39
11542;BME280;5827;49.482;7.716;2023-05-19T01:45:49;99435.72;;;9.40;88.30
11542;BME280;5827;49.482;7.716;2023-05-19T01:47:54;99435.44;;;9.49;87.75
11542;BME280;5827;49.482;7.716;2023-05-19T01:49:56;99430.03;;;9.30;88.03
11542;BME280;5827;49.482;7.716;2023-05-19T01:51:58;99436.75;;;9.39;87.84
11542;BME280;5827;49.482;7.716;2023-05-19T01:53:59;99432.44;;;9.13;88.63
11542;BME280;5827;49.482;7.716;2023-05-19T01:56:01;99427.63;;;9.22;88.37
11542;BME280;5827;49.482;7.716;2023-05-19T01:58:09;99434.69;;;9.16;87.65
11542;BME280;5827;49.482;7.716;2023-05-19T02:00:18;99436.50;;;9.16;88.32
11542;BME280;5827;49.482;7.716;2023-05-19T02:02:28;99433.00;;;9.15;88.13
11542;BME280;5827;49.482;7.716;2023-05-19T02:04:41;99434.28;;;9.13;88.32
11542;BME280;5827;49.482;7.716;2023-05-19T02:06:49;99425.97;;;8.96;88.47
11542;BME280;5827;49.482;7.716;2023-05-19T02:08:59;99433.97;;;8.96;88.74
11542;BME280;5827;49.482;7.716;2023-05-19T02:11:06;99434.13;;;9.08;88.74
11542;BME280;5827;49.482;7.716;2023-05-19T02:13:12;99432.53;;;9.00;88.53
11542;BME280;5827;49.482;7.716;2023-05-19T02:15:16;99435.94;;;8.82;89.00
11542;BME280;5827;49.482;7.716;2023-05-19T02:17:22;99429.06;;;8.93;89.50
11542;BME280;5827;49.482;7.716;2023-05-19T02:19:27;99429.94;;;8.87;89.60
11542;BME280;5827;49.482;7.716;2023-05-19T02:21:30;99429.94;;;8.87;88.79
11542;BME280;5827;49.482;7.716;2023-05-19T02:23:32;99436.53;;;8.84;89.43
11542;BME280;5827;49.482;7.716;2023-05-19T02:25:33;99434.06;;;8.83;89.71
11542;BME280;5827;49.482;7.716;2023-05-19T02:27:35;99434.94;;;8.77;89.30
11542;BME280;5827;49.482;7.716;2023-05-19T02:29:37;99429.91;;;8.62;90.25
11542;BME280;5827;49.482;7.716;2023-05-19T02:31:39;99427.88;;;8.57;89.75
11542;BME280;5827;49.482;7.716;2023-05-19T02:33:40;99418.63;;;8.53;90.36
11542;BME280;5827;49.482;7.716;2023-05-19T02:35:42;99421.31;;;8.53;90.07
11542;BME280;5827;49.482;7.716;2023-05-19T02:37:45;99429.25;;;8.67;90.28
11542;BME280;5827;49.482;7.716;2023-05-19T02:39:46;99424.72;;;8.67;89.56
11542;BME280;5827;49.482;7.716;2023-05-19T02:41:47;99427.34;;;8.74;89.71
11542;BME280;5827;49.482;7.716;2023-05-19T02:43:49;99425.66;;;8.79;89.79
11542;BME280;5827;49.482;7.716;2023-05-19T02:45:50;99424.84;;;8.79;88.91
11542;BME280;5827;49.482;7.716;2023-05-19T02:47:52;99419.91;;;8.82;88.43
11542;BME280;5827;49.482;7.716;2023-05-19T02:49:53;99417.88;;;8.78;88.20
11542;BME280;5827;49.482;7.716;2023-05-19T02:51:55;99423.47;;;8.70;89.03
11542;BME280;5827;49.482;7.716;2023-05-19T02:53:58;99424.19;;;8.83;88.92
11542;BME280;5827;49.482;7.716;2023-05-19T02:55:59;99421.84;;;8.69;88.95
11542;BME280;5827;49.482;7.716;2023-05-19T02:58:01;99421.50;;;8.58;90.05
11542;BME280;5827;49.482;7.716;2023-05-19T03:00:03;99409.94;;;8.64;89.88
11542;BME280;5827;49.482;7.716;2023-05-19T03:02:05;99421.25;;;8.60;89.77
11542;BME280;5827;49.482;7.716;2023-05-19T03:04:06;99414.34;;;8.52;90.94
11542;BME280;5827;49.482;7.716;2023-05-19T03:06:08;99408.59;;;8.49;90.96
11542;BME280;5827;49.482;7.716;2023-05-19T03:08:09;99407.56;;;8.50;90.54
11542;BME280;5827;49.482;7.716;2023-05-19T03:10:12;99407.97;;;8.53;90.20
11542;BME280;5827;49.482;7.716;2023-05-19T03:12:14;99412.03;;;8.56;90.09
11542;BME280;5827;49.482;7.716;2023-05-19T03:14:15;99418.03;;;8.51;90.52
11542;BME280;5827;49.482;7.716;2023-05-19T03:16:17;99415.56;;;8.50;90.25
11542;BME280;5827;49.482;7.716;2023-05-19T03:18:19;99421.09;;;8.55;89.91
11542;BME280;5827;49.482;7.716;2023-05-19T03:20:20;99415.63;;;8.43;90.53
11542;BME280;5827;49.482;7.716;2023-05-19T03:22:22;99422.59;;;8.44;89.72
11542;BME280;5827;49.482;7.716;2023-05-19T03:24:23;99412.56;;;8.26;90.87
11542;BME280;5827;49.482;7.716;2023-05-19T03:26:26;99421.78;;;8.37;90.32
11542;BME280;5827;49.482;7.716;2023-05-19T03:28:28;99418.31;;;8.36;90.52
11542;BME280;5827;49.482;7.716;2023-05-19T03:30:30;99417.69;;;8.28;90.85
11542;BME280;5827;49.482;7.716;2023-05-19T03:32:31;99418.13;;;8.25;90.36
11542;BME280;5827;49.482;7.716;2023-05-19T03:34:36;99417.50;;;8.23;90.22
11542;BME280;5827;49.482;7.716;2023-05-19T03:36:38;99419.59;;;8.21;90.51
11542;BME280;5827;49.482;7.716;2023-05-19T03:38:39;99415.31;;;8.13;91.11
11542;BME280;5827;49.482;7.716;2023-05-19T03:40:41;99411.81;;;8.12;90.39
11542;BME280;5827;49.482;7.716;2023-05-19T03:42:44;99408.91;;;8.21;90.91
11542;BME280;5827;49.482;7.716;2023-05-19T03:44:46;99408.75;;;8.09;91.83
11542;BME280;5827;49.482;7.716;2023-05-19T03:46:47;99417.75;;;8.14;91.41
11542;BME280;5827;49.482;7.716;2023-05-19T03:48:49;99413.22;;;8.15;91.36
11542;BME280;5827;49.482;7.716;2023-05-19T03:50:50;99412.00;;;8.18;91.88
11542;BME280;5827;49.482;7.716;2023-05-19T03:52:52;99414.72;;;8.04;91.92
11542;BME280;5827;49.482;7.716;2023-05-19T03:54:54;99414.50;;;8.06;92.07
11542;BME280;5827;49.482;7.716;2023-05-19T03:56:57;99415.13;;;8.01;92.77
11542;BME280;5827;49.482;7.716;2023-05-19T03:59:00;99432.81;;;8.02;93.17
11542;BME280;5827;49.482;7.716;2023-05-19T04:01:01;99421.09;;;7.97;92.66
11542;BME280;5827;49.482;7.716;2023-05-19T04:03:03;99424.34;;;8.05;92.63
11542;BME280;5827;49.482;7.716;2023-05-19T04:05:05;99426.66;;;8.02;92.04
11542;BME280;5827;49.482;7.716;2023-05-19T04:07:06;99423.72;;;8.10;91.68
11542;BME280;5827;49.482;7.716;2023-05-19T04:09:10;99422.09;;;8.09;92.14
11542;BME280;5827;49.482;7.716;2023-05-19T04:11:13;99427.03;;;8.05;92.56
11542;BME280;5827;49.482;7.716;2023-05-19T04:13:14;99435.66;;;8.07;92.95
11542;BME280;5827;49.482;7.716;2023-05-19T04:15:17;99431.75;;;8.03;92.63
11542;BME280;5827;49.482;7.716;2023-05-19T04:17:18;99431.53;;;8.11;92.25
11542;BME280;5827;49.482;7.716;2023-05-19T04:19:21;99428.00;;;8.18;92.39
11542;BME280;5827;49.482;7.716;2023-05-19T04:21:22;99435.78;;;8.19;92.46
11542;BME280;5827;49.482;7.716;2023-05-19T04:23:24;99428.88;;;8.11;93.60
11542;BME280;5827;49.482;7.716;2023-05-19T04:25:25;99436.47;;;8.08;93.21
11542;BME280;5827;49.482;7.716;2023-05-19T04:27:27;99427.41;;;8.15;93.65
11542;BME280;5827;49.482;7.716;2023-05-19T04:29:31;99440.31;;;8.25;93.38
11542;BME280;5827;49.482;7.716;2023-05-19T04:31:34;99430.41;;;8.32;93.00
11542;BME280;5827;49.482;7.716;2023-05-19T04:33:35;99439.19;;;8.53;93.51
11542;BME280;5827;49.482;7.716;2023-05-19T04:35:37;99435.09;;;8.50;93.43
11542;BME280;5827;49.482;7.716;2023-05-19T04:37:38;99440.69;;;8.74;91.82
11542;BME280;5827;49.482;7.716;2023-05-19T04:39:40;99442.31;;;8.81;91.53
11542;BME280;5827;49.482;7.716;2023-05-19T04:41:43;99439.00;;;8.86;91.38
11542;BME280;5827;49.482;7.716;2023-05-19T04:43:44;99440.06;;;8.78;92.66
11542;BME280;5827;49.482;7.716;2023-05-19T04:45:47;99442.50;;;9.11;90.74
11542;BME280;5827;49.482;7.716;2023-05-19T04:47:51;99448.03;;;9.41;88.69
11542;BME280;5827;49.482;7.716;2023-05-19T04:49:56;99454.66;;;9.57;88.62
11542;BME280;5827;49.482;7.716;2023-05-19T04:51:59;99460.16;;;9.87;86.46
11542;BME280;5827;49.482;7.716;2023-05-19T04:54:01;99466.56;;;10.05;85.64
11542;BME280;5827;49.482;7.716;2023-05-19T04:56:04;99462.78;;;10.31;85.89
11542;BME280;5827;49.482;7.716;2023-05-19T04:58:06;99470.75;;;10.56;82.80
11542;BME280;5827;49.482;7.716;2023-05-19T05:00:08;99471.53;;;10.75;83.42
11542;BME280;5827;49.482;7.716;2023-05-19T05:02:12;99477.78;;;10.99;81.39
11542;BME280;5827;49.482;7.716;2023-05-19T05:04:15;99473.97;;;11.06;80.60
11542;BME280;5827;49.482;7.716;2023-05-19T05:06:16;99478.31;;;11.19;79.86
11542;BME280;5827;49.482;7.716;2023-05-19T05:08:18;99470.97;;;11.26;79.41
11542;BME280;5827;49.482;7.716;2023-05-19T05:10:22;99474.97;;;11.59;79.43
11542;BME280;5827;49.482;7.716;2023-05-19T05:12:24;99477.94;;;11.69;77.89
11542;BME280;5827;49.482;7.716;2023-05-19T05:14:26;99474.88;;;11.77;76.71
11542;BME280;5827;49.482;7.716;2023-05-19T05:16:28;99479.78;;;11.68;78.53
11542;BME280;5827;49.482;7.716;2023-05-19T05:18:31;99471.53;;;12.05;76.35
11542;BME280;5827;49.482;7.716;2023-05-19T05:20:35;99481.41;;;12.28;75.20
11542;BME280;5827;49.482;7.716;2023-05-19T05:22:37;99481.38;;;12.40;75.25
11542;BME280;5827;49.482;7.716;2023-05-19T05:24:39;99485.06;;;12.51;74.67
11542;BME280;5827;49.482;7.716;2023-05-19T05:26:41;99466.81;;;12.24;75.99
11542;BME280;5827;49.482;7.716;2023-05-19T05:28:43;99480.19;;;12.48;75.00
11542;BME280;5827;49.482;7.716;2023-05-19T05:30:44;99478.97;;;12.55;73.53
11542;BME280;5827;49.482;7.716;2023-05-19T05:32:46;99471.69;;;12.79;72.67
11542;BME280;5827;49.482;7.716;2023-05-19T05:34:47;99471.50;;;12.86;74.18
11542;BME280;5827;49.482;7.716;2023-05-19T05:36:51;99470.66;;;12.97;73.12
11542;BME280;5827;49.482;7.716;2023-05-19T05:38:52;99477.13;;;13.13;72.77
11542;BME280;5827;49.482;7.716;2023-05-19T05:40:54;99479.78;;;13.25;72.30
11542;BME280;5827;49.482;7.716;2023-05-19T05:42:56;99474.69;;;13.11;70.19
11542;BME280;5827;49.482;7.716;2023-05-19T05:44:58;99482.03;;;13.16;68.17
11542;BME280;5827;49.482;7.716;2023-05-19T05:47:00;99483.47;;;13.35;67.22
11542;BME280;5827;49.482;7.716;2023-05-19T05:49:02;99481.00;;;13.67;67.99
11542;BME280;5827;49.482;7.716;2023-05-19T05:51:05;99486.22;;;13.91;67.09
11542;BME280;5827;49.482;7.716;2023-05-19T05:53:08;99483.66;;;14.01;65.74
11542;BME280;5827;49.482;7.716;2023-05-19T05:55:11;99477.25;;;13.35;68.68
11542;BME280;5827;49.482;7.716;2023-05-19T05:57:13;99483.38;;;13.30;67.61
11542;BME280;5827;49.482;7.716;2023-05-19T05:59:15;99482.97;;;14.11;67.91
11542;BME280;5827;49.482;7.716;2023-05-19T06:01:17;99484.50;;;14.45;67.04
11542;BME280;5827;49.482;7.716;2023-05-19T06:03:18;99485.09;;;14.69;67.37
11542;BME280;5827;49.482;7.716;2023-05-19T06:05:23;99489.59;;;14.86;66.11
11542;BME280;5827;49.482;7.716;2023-05-19T06:07:25;99493.03;;;15.03;63.81
11542;BME280;5827;49.482;7.716;2023-05-19T06:09:27;99491.00;;;15.20;63.20
11542;BME280;5827;49.482;7.716;2023-05-19T06:11:30;99489.00;;;15.06;63.67
11542;BME280;5827;49.482;7.716;2023-05-19T06:13:31;99490.88;;;15.05;63.18
11542;BME280;5827;49.482;7.716;2023-05-19T06:15:33;99490.31;;;14.76;62.81
11542;BME280;5827;49.482;7.716;2023-05-19T06:17:34;99488.38;;;14.49;62.98
11542;BME280;5827;49.482;7.716;2023-05-19T06:19:36;99476.84;;;14.15;66.05
11542;BME280;5827;49.482;7.716;2023-05-19T06:21:37;99477.88;;;14.31;65.62
11542;BME280;5827;49.482;7.716;2023-05-19T06:23:39;99478.25;;;14.40;65.98
11542;BME280;5827;49.482;7.716;2023-05-19T06:25:42;99479.38;;;14.44;65.72
11542;BME280;5827;49.482;7.716;2023-05-19T06:27:43;99475.84;;;14.21;66.74
11542;BME280;5827;49.482;7.716;2023-05-19T06:29:45;99468.84;;;14.64;66.07
11542;BME280;5827;49.482;7.716;2023-05-19T06:31:46;99476.19;;;14.25;66.28
11542;BME280;5827;49.482;7.716;2023-05-19T06:33:48;99473.56;;;14.52;65.14
11542;BME280;5827;49.482;7.716;2023-05-19T06:35:49;99469.09;;;14.41;67.50
11542;BME280;5827;49.482;7.716;2023-05-19T06:37:51;99473.97;;;14.88;66.62
11542;BME280;5827;49.482;7.716;2023-05-19T06:39:52;99473.19;;;14.92;64.89
11542;BME280;5827;49.482;7.716;2023-05-19T06:41:55;99476.59;;;14.83;63.65
11542;BME280;5827;49.482;7.716;2023-05-19T06:43:57;99472.38;;;14.92;63.62
11542;BME280;5827;49.482;7.716;2023-05-19T06:45:58;99476.09;;;14.86;62.06
11542;BME280;5827;49.482;7.716;2023-05-19T06:48:00;99470.47;;;14.43;64.53
11542;BME280;5827;49.482;7.716;2023-05-19T06:50:02;99475.25;;;14.80;62.85
11542;BME280;5827;49.482;7.716;2023-05-19T06:52:04;99484.34;;;14.52;61.37
11542;BME280;5827;49.482;7.716;2023-05-19T06:54:05;99482.81;;;15.10;62.46
11542;BME280;5827;49.482;7.716;2023-05-19T06:56:10;99477.31;;;14.73;61.20
11542;BME280;5827;49.482;7.716;2023-05-19T06:58:12;99480.94;;;15.11;61.89
11542;BME280;5827;49.482;7.716;2023-05-19T07:00:14;99483.31;;;15.34;59.89
11542;BME280;5827;49.482;7.716;2023-05-19T07:02:18;99474.94;;;14.77;63.70
11542;BME280;5827;49.482;7.716;2023-05-19T07:04:19;99475.53;;;14.84;61.57
11542;BME280;5827;49.482;7.716;2023-05-19T07:06:21;99483.97;;;15.46;61.80
11542;BME280;5827;49.482;7.716;2023-05-19T07:08:22;99493.31;;;15.66;58.94
11542;BME280;5827;49.482;7.716;2023-05-19T07:10:24;99502.91;;;15.84;57.36
11542;BME280;5827;49.482;7.716;2023-05-19T07:12:25;99489.41;;;15.84;58.84
11542;BME280;5827;49.482;7.716;2023-05-19T07:14:28;99493.13;;;16.15;56.71
11542;BME280;5827;49.482;7.716;2023-05-19T07:16:30;99492.34;;;16.24;57.74
11542;BME280;5827;49.482;7.716;2023-05-19T07:18:31;99503.06;;;16.04;54.45
11542;BME280;5827;49.482;7.716;2023-05-19T07:20:33;99504.59;;;17.00;53.96
11542;BME280;5827;49.482;7.716;2023-05-19T07:22:34;99499.72;;;17.17;52.80
11542;BME280;5827;49.482;7.716;2023-05-19T07:24:36;99494.50;;;16.75;53.03
11542;BME280;5827;49.482;7.716;2023-05-19T07:26:37;99498.06;;;16.91;52.77
11542;BME280;5827;49.482;7.716;2023-05-19T07:28:39;99495.41;;;17.16;52.57
11542;BME280;5827;49.482;7.716;2023-05-19T07:30:43;99503.72;;;16.89;52.38
11542;BME280;5827;49.482;7.716;2023-05-19T07:32:44;99491.06;;;17.20;52.45
11542;BME280;5827;49.482;7.716;2023-05-19T07:34:46;99497.47;;;16.79;52.23
11542;BME280;5827;49.482;7.716;2023-05-19T07:36:47;99490.81;;;16.44;54.20
11542;BME280;5827;49.482;7.716;2023-05-19T07:38:49;99487.44;;;16.16;54.68
11542;BME280;5827;49.482;7.716;2023-05-19T07:40:50;99480.25;;;17.15;52.83
11542;BME280;5827;49.482;7.716;2023-05-19T07:42:52;99484.03;;;17.30;51.95
11542;BME280;5827;49.482;7.716;2023-05-19T07:44:53;99482.44;;;17.69;52.67
11542;BME280;5827;49.482;7.716;2023-05-19T07:46:56;99496.78;;;17.85;50.44
11542;BME280;5827;49.482;7.716;2023-05-19T07:48:58;99490.81;;;17.58;50.58
11542;BME280;5827;49.482;7.716;2023-05-19T07:51:00;99490.28;;;17.96;50.38
11542;BME280;5827;49.482;7.716;2023-05-19T07:53:02;99496.28;;;17.78;50.29
11542;BME280;5827;49.482;7.716;2023-05-19T07:55:04;99491.38;;;17.90;50.21
11542;BME280;5827;49.482;7.716;2023-05-19T07:57:06;99490.53;;;18.85;49.83
11542;BME280;5827;49.482;7.716;2023-05-19T07:59:07;99494.63;;;17.87;51.66
11542;BME280;5827;49.482;7.716;2023-05-19T08:01:12;99491.56;;;18.29;49.56
11542;BME280;5827;49.482;7.716;2023-05-19T08:03:15;99491.66;;;17.84;49.32
11542;BME280;5827;49.482;7.716;2023-05-19T08:05:17;99485.78;;;18.41;50.30
11542;BME280;5827;49.482;7.716;2023-05-19T08:07:18;99480.75;;;18.19;50.72
11542;BME280;5827;49.482;7.716;2023-05-19T08:09:20;99480.47;;;18.16;50.49
11542;BME280;5827;49.482;7.716;2023-05-19T08:11:21;99490.47;;;18.25;48.85
11542;BME280;5827;49.482;7.716;2023-05-19T08:13:23;99491.41;;;18.65;49.19
11542;BME280;5827;49.482;7.716;2023-05-19T08:15:25;99484.50;;;18.18;49.52
11542;BME280;5827;49.482;7.716;2023-05-19T08:17:26;99491.00;;;18.27;48.54
11542;BME280;5827;49.482;7.716;2023-05-19T08:19:29;99490.28;;;17.76;49.97
11542;BME280;5827;49.482;7.716;2023-05-19T08:21:31;99486.75;;;18.06;50.85
11542;BME280;5827;49.482;7.716;2023-05-19T08:23:33;99486.41;;;18.18;49.51
11542;BME280;5827;49.482;7.716;2023-05-19T08:25:37;99490.28;;;17.56;49.68
11542;BME280;5827;49.482;7.716;2023-05-19T08:27:39;99482.63;;;16.91;50.81
11542;BME280;5827;49.482;7.716;2023-05-19T08:29:41;99478.00;;;18.14;50.83
11542;BME280;5827;49.482;7.716;2023-05-19T08:31:42;99476.22;;;18.69;49.90
11542;BME280;5827;49.482;7.716;2023-05-19T08:33:44;99485.66;;;17.66;49.95
11542;BME280;5827;49.482;7.716;2023-05-19T08:35:47;99474.81;;;17.41;50.16
11542;BME280;5827;49.482;7.716;2023-05-19T08:37:48;99469.41;;;17.20;51.24
11542;BME280;5827;49.482;7.716;2023-05-19T08:39:50;99469.16;;;17.83;51.36
11542;BME280;5827;49.482;7.716;2023-05-19T08:41:52;99472.66;;;17.53;51.20
11542;BME280;5827;49.482;7.716;2023-05-19T08:43:53;99472.63;;;17.99;49.80
11542;BME280;5827;49.482;7.716;2023-05-19T08:45:55;99459.09;;;17.02;51.00
11542;BME280;5827;49.482;7.716;2023-05-19T08:47:59;99457.63;;;18.27;50.68
11542;BME280;5827;49.482;7.716;2023-05-19T08:50:03;99462.38;;;17.55;50.72
11542;BME280;5827;49.482;7.716;2023-05-19T08:52:16;99456.13;;;17.80;51.69
11542;BME280;5827;49.482;7.716;2023-05-19T08:54:24;99461.53;;;18.06;51.98
11542;BME280;5827;49.482;7.716;2023-05-19T08:56:28;99465.06;;;17.86;51.42
11542;BME280;5827;49.482;7.716;2023-05-19T08:58:31;99461.44;;;18.26;49.51
11542;BME280;5827;49.482;7.716;2023-05-19T09:00:33;99459.75;;;18.40;49.27
11542;BME280;5827;49.482;7.716;2023-05-19T09:02:37;99458.50;;;18.17;50.94
11542;BME280;5827;49.482;7.716;2023-05-19T09:04:40;99456.31;;;18.24;49.25
11542;BME280;5827;49.482;7.716;2023-05-19T09:06:45;99446.38;;;18.59;49.96
11542;BME280;5827;49.482;7.716;2023-05-19T09:08:48;99446.94;;;18.56;49.48
11542;BME280;5827;49.482;7.716;2023-05-19T09:10:50;99449.34;;;18.63;50.22
11542;BME280;5827;49.482;7.716;2023-05-19T09:12:52;99439.47;;;18.27;51.12
11542;BME280;5827;49.482;7.716;2023-05-19T09:14:54;99448.78;;;19.15;50.00
11542;BME280;5827;49.482;7.716;2023-05-19T09:16:55;99444.72;;;19.13;49.78
11542;BME280;5827;49.482;7.716;2023-05-19T09:18:57;99428.19;;;18.65;51.13
11542;BME280;5827;49.482;7.716;2023-05-19T09:21:00;99431.41;;;18.72;50.87
11542;BME280;5827;49.482;7.716;2023-05-19T09:23:02;99442.16;;;18.87;49.26
11542;BME280;5827;49.482;7.716;2023-05-19T09:25:16;99439.28;;;19.13;48.42
11542;BME280;5827;49.482;7.716;2023-05-19T09:27:20;99430.19;;;18.39;49.28
11542;BME280;5827;49.482;7.716;2023-05-19T09:29:22;99427.94;;;18.61;47.81
11542;BME280;5827;49.482;7.716;2023-05-19T09:31:30;99421.16;;;18.53;48.87
11542;BME280;5827;49.482;7.716;2023-05-19T09:33:33;99422.91;;;19.23;47.06
11542;BME280;5827;49.482;7.716;2023-05-19T09:35:35;99420.28;;;18.09;47.77
11542;BME280;5827;49.482;7.716;2023-05-19T09:37:39;99427.72;;;18.47;46.04
11542;BME280;5827;49.482;7.716;2023-05-19T09:39:43;99431.97;;;18.74;46.81
11542;BME280;5827;49.482;7.716;2023-05-19T09:41:52;99435.47;;;19.14;46.13
11542;BME280;5827;49.482;7.716;2023-05-19T09:43:54;99428.41;;;18.73;46.50
11542;BME280;5827;49.482;7.716;2023-05-19T09:45:58;99436.56;;;18.73;46.21
11542;BME280;5827;49.482;7.716;2023-05-19T09:48:02;99422.13;;;18.28;46.93
11542;BME280;5827;49.482;7.716;2023-05-19T09:50:05;99421.22;;;18.43;47.23
11542;BME280;5827;49.482;7.716;2023-05-19T09:52:08;99431.50;;;19.01;45.50
11542;BME280;5827;49.482;7.716;2023-05-19T09:54:13;99433.34;;;19.05;44.65
11542;BME280;5827;49.482;7.716;2023-05-19T09:56:15;99439.50;;;19.21;43.27
11542;BME280;5827;49.482;7.716;2023-05-19T09:58:18;99434.38;;;19.20;43.69
11542;BME280;5827;49.482;7.716;2023-05-19T10:00:21;99430.22;;;19.62;45.31
11542;BME280;5827;49.482;7.716;2023-05-19T10:02:23;99442.69;;;19.34;43.17
11542;BME280;5827;49.482;7.716;2023-05-19T10:04:27;99443.78;;;19.67;41.71
11542;BME280;5827;49.482;7.716;2023-05-19T10:06:29;99437.59;;;19.22;43.18
11542;BME280;5827;49.482;7.716;2023-05-19T10:08:32;99446.72;;;19.36;41.45
11542;BME280;5827;49.482;7.716;2023-05-19T10:10:35;99430.56;;;18.76;43.53
11542;BME280;5827;49.482;7.716;2023-05-19T10:12:37;99427.38;;;18.69;43.58
11542;BME280;5827;49.482;7.716;2023-05-19T10:14:41;99432.75;;;19.14;43.36
11542;BME280;5827;49.482;7.716;2023-05-19T10:16:43;99431.25;;;18.48;43.44
11542;BME280;5827;49.482;7.716;2023-05-19T10:18:46;99425.47;;;18.65;42.86
11542;BME280;5827;49.482;7.716;2023-05-19T10:20:48;99426.06;;;19.01;44.01
11542;BME280;5827;49.482;7.716;2023-05-19T10:22:50;99432.69;;;18.85;42.68
11542;BME280;5827;49.482;7.716;2023-05-19T10:24:51;99422.19;;;18.63;43.62
11542;BME280;5827;49.482;7.716;2023-05-19T10:26:58;99415.75;;;19.03;43.99
11542;BME280;5827;49.482;7.716;2023-05-19T10:29:02;99431.16;;;19.13;43.75
11542;BME280;5827;49.482;7.716;2023-05-19T10:31:09;99416.66;;;19.57;43.44
11542;BME280;5827;49.482;7.716;2023-05-19T10:33:14;99410.66;;;19.84;44.88
11542;BME280;5827;49.482;7.716;2023-05-19T10:35:29;99425.53;;;19.38;43.35
11542;BME280;5827;49.482;7.716;2023-05-19T10:37:38;99420.84;;;19.44;43.28
11542;BME280;5827;49.482;7.716;2023-05-19T10:39:42;99410.25;;;19.08;43.15
11542;BME280;5827;49.482;7.716;2023-05-19T10:41:48;99414.34;;;19.40;42.38
11542;BME280;5827;49.482;7.716;2023-05-19T10:43:55;99427.06;;;19.15;41.41
11542;BME280;5827;49.482;7.716;2023-05-19T10:46:00;99410.75;;;19.15;41.93
11542;BME280;5827;49.482;7.716;2023-05-19T10:48:03;99402.53;;;19.54;43.67
11542;BME280;5827;49.482;7.716;2023-05-19T10:50:07;99408.75;;;18.92;41.93
11542;BME280;5827;49.482;7.716;2023-05-19T10:52:21;99407.38;;;19.28;42.02
11542;BME280;5827;49.482;7.716;2023-05-19T10:54:40;99398.13;;;18.95;42.37
11542;BME280;5827;49.482;7.716;2023-05-19T10:56:43;99402.44;;;18.57;43.26
11542;BME280;5827;49.482;7.716;2023-05-19T10:58:49;99397.78;;;19.07;43.84
11542;BME280;5827;49.482;7.716;2023-05-19T11:00:59;99400.75;;;18.71;42.91
11542;BME280;5827;49.482;7.716;2023-05-19T11:03:14;99403.19;;;19.41;42.20
11542;BME280;5827;49.482;7.716;2023-05-19T11:05:16;99402.56;;;19.20;43.79
11542;BME280;5827;49.482;7.716;2023-05-19T11:07:19;99403.34;;;18.87;41.53